Time;durP1;ratioP1;P1;durP2;ratioP2;P2;SDS_P1;SDS_P2;PMS_P1;PMS_P2;Temp;Humidity;BMP_temperature;BMP_pressure;BME280_temperature;BME280_humidity;BME280_pressure;Samples;Min_cycle;Max_cycle;Signal;HPM_P1;HPM_P2
2024/01/21 00:04:49;;;;;;;55.53;29.43;;;1.40;1.00;;;;;;10351396;28;20391;-80
2024/01/21 00:10:13;;;;;;;54.80;24.47;;;1.50;46.50;;;;;;10411706;28;20202;-81
2024/01/21 00:15:34;;;;;;;37.83;19.20;;;1.50;1.00;;;;;;10337278;28;20332;-80
2024/01/21 00:20:56;;;;;;;30.57;16.83;;;1.50;1.00;;;;;;10380390;28;20256;-79
2024/01/21 00:26:17;;;;;;;27.23;14.17;;;1.50;25.00;;;;;;10394346;28;20194;-79
2024/01/21 00:31:38;;;;;;;21.00;11.67;;;1.60;1.00;;;;;;10335685;28;20211;-84
2024/01/21 00:36:59;;;;;;;13.37;8.17;;;1.70;1.00;;;;;;10396725;28;20550;-79
2024/01/21 00:42:21;;;;;;;11.07;7.30;;;1.50;99.90;;;;;;10379427;28;20291;-80
2024/01/21 00:47:42;;;;;;;22.67;12.47;;;1.50;1.00;;;;;;10382275;28;20214;-80
2024/01/21 00:53:03;;;;;;;24.93;12.83;;;1.50;1.00;;;;;;10410203;28;20273;-80
2024/01/21 00:58:25;;;;;;;17.00;10.40;;;1.60;1.00;;;;;;10471528;28;20218;-79
2024/01/21 01:03:47;;;;;;;13.97;7.43;;;1.60;99.90;;;;;;10371256;28;20199;-81
2024/01/21 01:09:08;;;;;;;9.63;6.00;;;1.60;1.00;;;;;;10394700;28;20201;-79
2024/01/21 01:14:30;;;;;;;9.50;6.50;;;1.60;1.00;;;;;;10308431;28;20232;-80
2024/01/21 01:19:52;;;;;;;13.77;8.60;;;1.70;1.00;;;;;;10340505;28;20254;-80
2024/01/21 01:25:13;;;;;;;19.73;13.67;;;1.70;19.40;;;;;;10340115;28;20252;-80
2024/01/21 01:30:37;;;;;;;16.93;10.63;;;1.70;1.00;;;;;;10395731;28;20202;-81
2024/01/21 01:35:59;;;;;;;15.03;9.10;;;1.70;99.90;;;;;;10321628;28;20236;-80
2024/01/21 01:41:20;;;;;;;13.47;7.63;;;1.70;99.90;;;;;;10308578;28;20224;-80
2024/01/21 01:46:43;;;;;;;11.90;8.60;;;1.70;1.00;;;;;;10368448;28;20211;-80
2024/01/21 01:52:06;;;;;;;10.47;7.37;;;1.70;1.00;;;;;;10267197;29;20195;-79
2024/01/21 01:57:28;;;;;;;9.63;6.77;;;1.80;1.00;;;;;;10499994;28;20249;-80
2024/01/21 02:02:50;;;;;;;11.63;7.90;;;1.90;1.00;;;;;;10413060;28;20213;-79
2024/01/21 02:08:12;;;;;;;14.87;8.63;;;1.90;1.00;;;;;;10314896;28;20195;-84
2024/01/21 02:13:33;;;;;;;14.83;8.33;;;1.80;1.00;;;;;;10384976;28;20278;-79
2024/01/21 02:18:55;;;;;;;13.47;7.90;;;1.80;1.00;;;;;;10314386;28;20243;-80
2024/01/21 02:24:16;;;;;;;11.73;8.33;;;1.90;1.00;;;;;;10313486;28;20289;-80
2024/01/21 02:29:37;;;;;;;13.57;8.90;;;1.90;1.00;;;;;;10329368;28;20204;-80
2024/01/21 02:34:58;;;;;;;13.53;8.00;;;1.90;1.00;;;;;;10285757;28;20223;-79
2024/01/21 02:40:20;;;;;;;13.10;8.90;;;1.90;1.00;;;;;;10373937;28;20199;-79
2024/01/21 02:45:41;;;;;;;13.17;8.60;;;2.00;1.00;;;;;;10407903;28;20199;-79
2024/01/21 02:51:03;;;;;;;15.10;9.37;;;2.00;1.00;;;;;;10298954;28;20201;-79
2024/01/21 02:56:26;;;;;;;15.97;9.53;;;1.90;78.00;;;;;;10310652;28;20245;-81
2024/01/21 03:01:47;;;;;;;15.37;9.20;;;1.90;99.90;;;;;;10298344;28;20237;-81
2024/01/21 03:07:08;;;;;;;16.10;9.80;;;2.00;99.90;;;;;;10310548;28;20199;-80
2024/01/21 03:12:29;;;;;;;19.00;10.63;;;2.10;99.90;;;;;;10312832;28;20424;-80
2024/01/21 03:17:50;;;;;;;19.23;11.40;;;2.00;99.90;;;;;;10382671;28;20258;-80
2024/01/21 03:23:14;;;;;;;18.43;11.43;;;2.00;99.90;;;;;;10344063;28;20194;-81
2024/01/21 03:28:36;;;;;;;19.23;11.13;;;2.00;99.90;;;;;;10327771;28;20423;-81
2024/01/21 03:33:57;;;;;;;27.77;14.37;;;1.90;1.00;;;;;;10337800;28;20243;-79
2024/01/21 03:39:19;;;;;;;23.53;13.67;;;1.90;1.00;;;;;;10337402;28;20532;-78
2024/01/21 03:44:40;;;;;;;24.07;14.80;;;1.90;1.00;;;;;;10326600;28;20233;-79
2024/01/21 03:50:02;;;;;;;42.50;19.17;;;2.00;1.00;;;;;;10297178;28;20509;-80
2024/01/21 03:55:24;;;;;;;42.80;20.90;;;2.00;1.00;;;;;;10313198;28;20234;-82
2024/01/21 04:00:45;;;;;;;28.80;16.70;;;2.00;1.00;;;;;;10431555;28;20187;-79
2024/01/21 04:06:08;;;;;;;32.70;16.90;;;2.00;1.00;;;;;;10480952;28;20513;-79
2024/01/21 04:11:29;;;;;;;27.00;15.17;;;2.00;1.00;;;;;;10520362;28;20281;-79
2024/01/21 04:16:50;;;;;;;24.43;14.47;;;2.00;1.00;;;;;;10342463;28;20233;-81
2024/01/21 04:22:11;;;;;;;28.90;15.50;;;2.00;1.00;;;;;;10373603;28;20199;-84
2024/01/21 04:27:32;;;;;;;28.07;15.67;;;2.10;1.00;;;;;;10309194;28;20202;-79
2024/01/21 04:32:54;;;;;;;34.47;17.43;;;2.00;99.90;;;;;;10512401;28;20198;-81
2024/01/21 04:38:16;;;;;;;35.97;19.33;;;2.00;99.90;;;;;;10339556;28;20529;-79
2024/01/21 04:43:37;;;;;;;34.33;17.87;;;2.00;99.90;;;;;;10287182;28;20607;-85
2024/01/21 04:48:58;;;;;;;29.10;16.40;;;2.10;1.00;;;;;;10309984;28;20274;-83
2024/01/21 04:54:19;;;;;;;33.80;18.17;;;2.00;99.90;;;;;;10295567;28;20199;-83
2024/01/21 04:59:41;;;;;;;50.57;20.43;;;2.00;1.00;;;;;;10309460;28;20619;-80
2024/01/21 05:05:04;;;;;;;47.90;20.80;;;2.00;1.00;;;;;;10375236;28;20199;-79
2024/01/21 05:10:26;;;;;;;40.47;20.33;;;2.10;99.90;;;;;;10262694;28;20211;-79
2024/01/21 05:15:47;;;;;;;40.57;20.30;;;2.10;99.90;;;;;;10352699;28;20260;-84
2024/01/21 05:21:08;;;;;;;39.20;18.10;;;2.00;99.90;;;;;;10369336;28;20579;-83
2024/01/21 05:26:30;;;;;;;46.30;20.77;;;2.00;99.90;;;;;;10308290;28;20286;-84
2024/01/21 05:31:51;;;;;;;41.03;20.27;;;2.00;99.90;;;;;;10398807;28;20205;-80
2024/01/21 05:37:12;;;;;;;43.63;21.40;;;1.90;99.90;;;;;;10314631;28;20295;-79
2024/01/21 05:42:34;;;;;;;33.57;19.67;;;1.90;99.90;;;;;;10314593;28;20197;-80
2024/01/21 05:47:55;;;;;;;43.83;22.00;;;1.90;99.90;;;;;;10301152;28;20577;-84
2024/01/21 05:53:16;;;;;;;44.20;24.07;;;1.90;99.90;;;;;;10315893;28;20192;-83
2024/01/21 05:58:37;;;;;;;40.00;19.07;;;1.90;99.90;;;;;;10303184;28;20254;-84
2024/01/21 06:03:59;;;;;;;32.07;17.33;;;1.90;99.90;;;;;;10348655;28;20266;-83
2024/01/21 06:09:20;;;;;;;36.23;19.27;;;1.90;1.00;;;;;;10526029;28;20212;-84
2024/01/21 06:14:41;;;;;;;32.50;18.00;;;1.80;1.00;;;;;;10525215;28;20195;-79
2024/01/21 06:20:03;;;;;;;32.70;17.07;;;1.70;1.00;;;;;;10524943;28;20234;-84
2024/01/21 06:25:25;;;;;;;32.63;17.27;;;1.70;99.90;;;;;;10505608;28;20186;-80
2024/01/21 06:30:46;;;;;;;31.03;14.53;;;1.70;36.40;;;;;;10344747;28;20267;-79
2024/01/21 06:36:08;;;;;;;26.00;14.97;;;1.70;1.00;;;;;;10273447;28;20230;-80
2024/01/21 06:41:30;;;;;;;23.90;13.77;;;1.70;1.00;;;;;;10373387;28;20446;-80
2024/01/21 06:46:51;;;;;;;27.00;14.60;;;1.60;99.90;;;;;;10312833;28;20198;-80
2024/01/21 06:52:12;;;;;;;29.20;13.93;;;1.60;99.90;;;;;;10299164;28;20265;-80
2024/01/21 06:57:34;;;;;;;33.63;16.03;;;1.70;99.90;;;;;;10298138;28;20285;-79
2024/01/21 07:02:55;;;;;;;30.67;14.77;;;1.70;72.60;;;;;;10280200;28;20227;-84
2024/01/21 07:08:18;;;;;;;28.53;14.57;;;1.70;1.00;;;;;;10514155;28;20199;-80
2024/01/21 07:13:39;;;;;;;28.73;14.67;;;1.60;99.90;;;;;;10509051;28;20225;-84
2024/01/21 07:19:01;;;;;;;29.33;15.77;;;1.50;99.90;;;;;;10522342;28;20245;-80
2024/01/21 07:24:22;;;;;;;22.90;11.90;;;1.60;99.90;;;;;;10522360;28;20195;-79
2024/01/21 07:29:43;;;;;;;26.10;12.67;;;1.60;1.00;;;;;;10309900;28;20201;-82
2024/01/21 07:35:04;;;;;;;25.93;11.77;;;1.50;40.70;;;;;;10271243;28;20214;-81
2024/01/21 07:40:27;;;;;;;51.97;22.43;;;1.50;1.00;;;;;;10371970;28;20299;-82
2024/01/21 07:45:48;;;;;;;43.73;19.83;;;1.50;1.00;;;;;;10391806;28;20209;-84
2024/01/21 07:51:12;;;;;;;41.20;18.07;;;1.70;1.00;;;;;;10310942;28;20427;-80
2024/01/21 07:56:34;;;;;;;33.23;15.30;;;1.70;1.00;;;;;;10295570;28;20230;-81
2024/01/21 08:01:57;;;;;;;34.57;17.20;;;1.60;1.00;;;;;;10282159;28;20253;-80
2024/01/21 08:07:18;;;;;;;22.00;12.13;;;1.70;99.90;;;;;;10538768;28;20322;-79
2024/01/21 08:12:39;;;;;;;24.10;13.07;;;1.80;99.90;;;;;;10505980;28;20245;-82
2024/01/21 08:18:01;;;;;;;48.63;20.00;;;1.90;1.00;;;;;;10534310;28;20604;-79
2024/01/21 08:23:22;;;;;;;98.30;37.37;;;1.90;99.90;;;;;;10519884;28;20263;-81
2024/01/21 08:28:45;;;;;;;84.27;29.37;;;1.80;1.00;;;;;;10519705;28;20245;-79
2024/01/21 08:34:08;;;;;;;39.07;17.60;;;1.70;1.00;;;;;;10347689;28;20215;-78
2024/01/21 08:39:29;;;;;;;94.37;27.70;;;1.80;1.00;;;;;;10298145;28;20273;-79
2024/01/21 08:44:53;;;;;;;97.30;29.73;;;1.70;1.00;;;;;;10357963;28;20206;-79
2024/01/21 08:50:15;;;;;;;59.03;22.93;;;1.70;99.90;;;;;;10296164;28;20194;-79
2024/01/21 08:55:40;;;;;;;91.23;29.57;;;1.70;1.00;;;;;;10303475;28;20423;-79
2024/01/21 09:01:02;;;;;;;95.40;43.13;;;1.80;1.00;;;;;;10308354;28;20272;-83
2024/01/21 09:06:26;;;;;;;115.77;38.13;;;1.90;1.00;;;;;;10439544;28;20195;-82
2024/01/21 09:11:47;;;;;;;137.73;33.27;;;2.00;1.00;;;;;;10355109;28;20206;-81
2024/01/21 09:17:08;;;;;;;130.13;34.93;;;2.10;99.90;;;;;;10374273;28;20425;-78
2024/01/21 09:22:30;;;;;;;50.60;20.77;;;2.10;92.90;;;;;;10307440;28;20199;-79
2024/01/21 09:27:52;;;;;;;35.20;18.03;;;1.90;91.30;;;;;;10394949;28;20641;-79
2024/01/21 09:33:13;;;;;;;28.20;14.33;;;2.00;99.90;;;;;;10312318;28;20195;-78
2024/01/21 09:38:37;;;;;;;28.00;14.60;;;2.20;99.90;;;;;;10304601;28;20313;-80
2024/01/21 09:43:59;;;;;;;32.53;17.27;;;2.10;1.00;;;;;;10373774;28;20501;-82
2024/01/21 09:49:24;;;;;;;29.83;14.47;;;2.20;1.00;;;;;;10307991;28;20198;-78
2024/01/21 09:54:46;;;;;;;24.13;14.53;;;2.10;99.90;;;;;;10306344;28;20205;-78
2024/01/21 10:00:12;;;;;;;31.70;17.17;;;2.10;99.90;;;;;;10394164;28;20226;-80
2024/01/21 10:05:33;;;;;;;42.13;23.83;;;2.10;74.40;;;;;;10393798;28;20195;-80
2024/01/21 10:10:57;;;;;;;32.40;17.97;;;2.10;99.90;;;;;;10286117;28;20246;-80
2024/01/21 10:16:20;;;;;;;52.37;24.57;;;2.40;1.00;;;;;;10337484;28;20234;-80
2024/01/21 10:21:43;;;;;;;37.50;18.23;;;2.30;1.00;;;;;;10304815;28;20591;-80
2024/01/21 10:27:10;;;;;;;33.07;17.23;;;2.30;1.00;;;;;;10360415;28;20206;-80
2024/01/21 10:32:31;;;;;;;50.60;22.90;;;2.00;1.00;;;;;;10344809;28;20261;-78
2024/01/21 10:37:54;;;;;;;40.97;22.70;;;2.00;1.00;;;;;;10293897;28;20309;-82
2024/01/21 10:43:16;;;;;;;31.57;16.87;;;2.00;1.00;;;;;;10338567;28;20528;-78
2024/01/21 10:48:42;;;;;;;24.77;15.40;;;2.10;1.00;;;;;;10312542;28;20202;-80
2024/01/21 10:54:04;;;;;;;35.17;17.43;;;2.20;1.00;;;;;;10313224;28;20197;-82
2024/01/21 10:59:28;;;;;;;32.87;17.27;;;2.30;1.00;;;;;;10413539;28;20253;-80
2024/01/21 11:04:50;;;;;;;31.40;15.93;;;2.60;1.00;;;;;;10369311;28;20194;-81
2024/01/21 11:10:11;;;;;;;32.27;18.20;;;2.90;99.90;;;;;;10469332;28;20203;-80
2024/01/21 11:15:32;;;;;;;25.93;13.67;;;2.70;99.90;;;;;;10483940;28;20199;-80
2024/01/21 11:20:59;;;;;;;26.57;13.73;;;2.80;99.90;;;;;;10497253;28;20308;-80
2024/01/21 11:26:21;;;;;;;29.43;14.97;;;2.90;99.90;;;;;;10466658;28;20495;-80
2024/01/21 11:31:42;;;;;;;27.00;13.20;;;3.00;99.90;;;;;;10466583;28;20191;-83
2024/01/21 11:37:04;;;;;;;35.93;17.90;;;3.20;99.90;;;;;;10440900;28;20390;-84
2024/01/21 11:42:27;;;;;;;30.50;13.70;;;3.30;98.90;;;;;;10279610;28;20428;-82
2024/01/21 11:47:48;;;;;;;32.73;14.53;;;3.30;50.50;;;;;;10296956;28;20199;-79
2024/01/21 11:53:10;;;;;;;29.87;13.30;;;3.00;99.90;;;;;;10310428;28;20199;-82
2024/01/21 11:58:33;;;;;;;25.90;14.10;;;3.10;99.90;;;;;;10317539;28;20252;-82
2024/01/21 12:03:55;;;;;;;31.87;15.63;;;3.20;18.60;;;;;;10340548;28;20194;-79
2024/01/21 12:09:16;;;;;;;29.83;15.47;;;3.10;1.00;;;;;;10371399;28;20290;-79
2024/01/21 12:14:38;;;;;;;24.47;10.73;;;2.80;1.00;;;;;;10310035;28;20210;-80
2024/01/21 12:19:59;;;;;;;18.87;9.50;;;2.70;1.00;;;;;;10369252;28;20569;-82
2024/01/21 12:25:24;;;;;;;19.10;9.33;;;2.30;1.00;;;;;;10373647;28;20482;-81
2024/01/21 12:30:47;;;;;;;28.13;15.13;;;2.40;35.20;;;;;;10368361;28;20198;-84
2024/01/21 12:36:08;;;;;;;20.83;11.47;;;2.40;99.90;;;;;;10290002;28;20229;-79
2024/01/21 12:41:31;;;;;;;24.20;12.17;;;2.30;27.40;;;;;;10268816;28;20274;-83
2024/01/21 12:46:52;;;;;;;18.40;10.40;;;2.30;99.90;;;;;;10294027;28;20289;-79
2024/01/21 12:52:14;;;;;;;19.97;10.90;;;2.40;1.00;;;;;;10372922;28;20206;-79
2024/01/21 12:57:35;;;;;;;40.60;20.03;;;2.20;46.70;;;;;;10348857;28;20255;-80
2024/01/21 13:02:56;;;;;;;29.67;13.67;;;2.10;99.90;;;;;;10273485;28;20191;-83
2024/01/21 13:08:17;;;;;;;27.57;13.97;;;2.10;31.70;;;;;;10400466;28;20211;-79
2024/01/21 13:13:39;;;;;;;24.77;12.73;;;2.00;6.20;;;;;;10307819;28;20202;-78
2024/01/21 13:19:00;;;;;;;22.90;12.23;;;2.10;1.40;;;;;;10307751;28;20287;-79
2024/01/21 13:24:21;;;;;;;22.60;11.53;;;1.90;1.00;;;;;;10340208;28;20204;-82
2024/01/21 13:35:25;;;;;;;27.67;13.97;;;2.00;19.60;;;;;;10340314;28;20368;-83
2024/01/21 13:40:47;;;;;;;24.00;12.80;;;2.00;1.00;;;;;;10389845;28;20291;-79
2024/01/21 13:46:07;;;;;;;35.23;19.03;;;2.00;1.00;;;;;;10334716;28;20252;-82
2024/01/21 13:51:29;;;;;;;38.73;19.30;;;2.00;1.00;;;;;;10322142;28;20206;-78
2024/01/21 13:56:52;;;;;;;28.17;13.93;;;1.80;1.00;;;;;;10401500;28;20254;-84
2024/01/21 14:02:13;;;;;;;24.03;12.40;;;1.70;1.00;;;;;;10401661;28;20202;-83
2024/01/21 14:07:35;;;;;;;28.70;13.40;;;1.70;1.00;;;;;;10391714;28;20211;-80
2024/01/21 14:12:57;;;;;;;35.67;16.30;;;1.70;1.00;;;;;;10315371;28;20199;-79
2024/01/21 14:18:18;;;;;;;37.77;15.07;;;1.60;1.00;;;;;;10345841;28;20552;-79
2024/01/21 14:23:39;;;;;;;24.40;12.13;;;1.50;1.00;;;;;;10370069;28;20202;-83
2024/01/21 14:29:03;;;;;;;34.30;16.57;;;1.50;1.00;;;;;;10385067;28;20228;-82
2024/01/21 14:34:25;;;;;;;33.43;16.37;;;1.50;29.60;;;;;;10418205;28;20206;-83
2024/01/21 14:39:46;;;;;;;39.10;17.47;;;1.60;1.00;;;;;;10312857;28;20237;-78
2024/01/21 14:45:08;;;;;;;28.37;13.00;;;1.50;1.00;;;;;;10304174;28;20545;-78
2024/01/21 14:50:29;;;;;;;33.93;14.40;;;1.60;1.00;;;;;;10343166;28;20199;-82
2024/01/21 14:55:51;;;;;;;26.70;12.17;;;1.50;1.00;;;;;;10384576;28;20278;-79
2024/01/21 15:01:12;;;;;;;35.70;13.83;;;1.60;1.00;;;;;;10399485;28;20261;-82
2024/01/21 15:06:34;;;;;;;38.73;14.57;;;1.50;1.00;;;;;;10460402;28;20195;-83
2024/01/21 15:11:55;;;;;;;35.23;14.87;;;1.50;1.00;;;;;;10310322;28;20219;-79
2024/01/21 15:17:16;;;;;;;39.17;15.83;;;1.50;1.00;;;;;;10311550;28;20264;-82
2024/01/21 15:22:37;;;;;;;36.93;16.50;;;1.50;1.00;;;;;;10312533;28;20202;-80
2024/01/21 15:27:58;;;;;;;45.37;19.97;;;1.50;14.00;;;;;;10311183;28;20253;-78
2024/01/21 15:33:20;;;;;;;37.13;16.70;;;1.40;63.60;;;;;;10381974;28;20202;-78
2024/01/21 15:38:41;;;;;;;38.00;16.23;;;1.50;97.70;;;;;;10360670;28;20305;-82
2024/01/21 15:44:03;;;;;;;36.83;15.43;;;1.40;99.90;;;;;;10396988;28;20504;-81
2024/01/21 15:49:24;;;;;;;51.33;24.20;;;1.40;99.90;;;;;;10342857;28;20233;-79
2024/01/21 15:54:47;;;;;;;51.40;24.50;;;1.40;99.90;;;;;;10328866;28;20437;-79
2024/01/21 16:00:09;;;;;;;47.70;19.53;;;1.50;99.90;;;;;;10310385;28;20228;-79
2024/01/21 16:05:30;;;;;;;33.37;16.07;;;1.50;99.90;;;;;;10375732;28;20288;-78
2024/01/21 16:10:51;;;;;;;37.03;18.13;;;1.50;99.90;;;;;;10370629;28;20489;-78
2024/01/21 16:16:14;;;;;;;34.37;14.33;;;1.50;99.90;;;;;;10269293;28;20382;-79
2024/01/21 16:21:35;;;;;;;24.53;10.60;;;1.50;99.90;;;;;;10354943;28;20256;-77
2024/01/21 16:26:56;;;;;;;30.77;14.80;;;1.50;99.90;;;;;;10296539;28;20202;-78
2024/01/21 16:32:17;;;;;;;35.83;14.33;;;1.40;1.00;;;;;;10269269;28;20202;-79
2024/01/21 16:37:39;;;;;;;29.23;12.43;;;1.40;1.00;;;;;;10388680;28;20412;-80
2024/01/21 16:43:01;;;;;;;22.37;9.93;;;1.60;99.90;;;;;;10309129;28;20210;-78
2024/01/21 16:48:23;;;;;;;32.27;14.63;;;1.70;1.00;;;;;;10308819;28;20273;-79
2024/01/21 16:53:47;;;;;;;28.57;12.77;;;1.70;99.90;;;;;;10335570;28;20191;-78
2024/01/21 16:59:09;;;;;;;29.10;13.63;;;1.70;99.90;;;;;;10294559;28;20218;-79
2024/01/21 17:04:31;;;;;;;22.73;11.63;;;1.80;99.90;;;;;;10350682;28;20462;-78
2024/01/21 17:09:54;;;;;;;44.73;17.80;;;1.80;99.90;;;;;;10292928;28;20239;-78
2024/01/21 17:15:15;;;;;;;31.83;13.53;;;1.70;99.90;;;;;;10321716;28;20246;-78
2024/01/21 17:20:39;;;;;;;26.43;12.23;;;1.70;99.90;;;;;;10379617;28;20234;-78
2024/01/21 17:26:00;;;;;;;32.10;13.40;;;1.80;99.90;;;;;;10313638;28;20190;-78
2024/01/21 17:31:21;;;;;;;39.20;14.23;;;1.80;99.90;;;;;;10422744;28;20249;-79
2024/01/21 17:36:43;;;;;;;33.70;15.97;;;1.80;99.90;;;;;;10311580;28;20224;-81
2024/01/21 17:42:07;;;;;;;39.47;19.77;;;1.80;99.90;;;;;;10405613;28;20198;-79
2024/01/21 17:47:28;;;;;;;35.13;14.67;;;1.80;99.90;;;;;;10336683;28;20551;-78
2024/01/21 17:52:50;;;;;;;27.10;12.30;;;1.80;99.90;;;;;;10325154;28;20291;-81
2024/01/21 17:58:11;;;;;;;52.57;20.83;;;1.50;1.00;;;;;;10394908;27;20241;-81
2024/01/21 18:03:32;;;;;;;56.17;22.43;;;1.50;1.00;;;;;;10395108;28;20197;-79
2024/01/21 18:08:56;;;;;;;47.40;19.53;;;1.60;1.00;;;;;;10360338;28;20213;-78
2024/01/21 18:14:17;;;;;;;31.47;13.57;;;1.60;1.00;;;;;;10390447;28;20193;-78
2024/01/21 18:19:41;;;;;;;23.73;10.50;;;1.60;1.00;;;;;;10363960;28;20563;-79
2024/01/21 18:25:02;;;;;;;26.30;11.53;;;1.70;1.00;;;;;;10405234;28;20528;-81
2024/01/21 18:30:24;;;;;;;25.30;10.27;;;1.60;1.00;;;;;;10424733;28;20401;-78
2024/01/21 18:35:45;;;;;;;24.53;11.73;;;1.70;1.00;;;;;;10390424;28;20209;-81
2024/01/21 18:41:06;;;;;;;26.70;10.87;;;1.60;1.00;;;;;;10384336;28;20224;-83
2024/01/21 18:46:27;;;;;;;27.20;12.77;;;1.70;1.00;;;;;;10367096;28;20557;-82
2024/01/21 18:51:49;;;;;;;23.13;11.30;;;1.60;1.00;;;;;;10351883;28;20198;-78
2024/01/21 18:57:10;;;;;;;25.77;11.73;;;1.80;1.00;;;;;;10330486;28;20273;-78
2024/01/21 19:02:34;;;;;;;24.53;11.13;;;1.90;1.00;;;;;;10400093;28;20352;-78
2024/01/21 19:07:56;;;;;;;39.87;20.13;;;1.80;1.00;;;;;;10526102;28;20225;-82
2024/01/21 19:13:17;;;;;;;58.90;18.83;;;1.80;1.00;;;;;;10523083;28;20200;-83
2024/01/21 19:18:39;;;;;;;34.13;14.97;;;1.90;1.00;;;;;;10321578;28;20243;-83
2024/01/21 19:24:06;;;;;;;42.97;15.93;;;1.90;1.00;;;;;;10392678;28;20194;-79
2024/01/21 19:29:28;;;;;;;34.87;15.30;;;1.90;1.00;;;;;;10312363;28;20424;-78
2024/01/21 19:34:50;;;;;;;28.17;12.73;;;1.90;1.00;;;;;;10312012;28;20239;-79
2024/01/21 19:40:11;;;;;;;22.60;10.37;;;1.90;1.00;;;;;;10416376;28;20226;-81
2024/01/21 19:45:32;;;;;;;23.23;10.17;;;1.90;99.90;;;;;;10342064;28;20440;-78
2024/01/21 19:50:54;;;;;;;27.73;10.90;;;2.00;99.90;;;;;;10396704;28;20444;-78
2024/01/21 19:56:15;;;;;;;23.90;10.40;;;2.10;99.90;;;;;;10329234;28;20206;-82
2024/01/21 20:01:38;;;;;;;26.63;11.40;;;2.00;99.90;;;;;;10310362;28;20220;-79
2024/01/21 20:06:59;;;;;;;32.07;15.03;;;2.00;99.90;;;;;;10520695;28;20195;-81
2024/01/21 20:12:21;;;;;;;26.80;11.67;;;2.00;99.90;;;;;;10506663;28;20236;-78
2024/01/21 20:17:42;;;;;;;27.33;12.30;;;2.10;99.90;;;;;;10394370;28;20470;-77
2024/01/21 20:23:03;;;;;;;27.57;12.23;;;2.10;99.90;;;;;;10328246;28;20201;-78
2024/01/21 20:28:25;;;;;;;36.40;13.63;;;2.10;99.90;;;;;;10411174;28;20497;-78
2024/01/21 20:33:46;;;;;;;44.80;20.40;;;2.10;99.90;;;;;;10411020;28;20252;-79
2024/01/21 20:39:08;;;;;;;32.63;13.83;;;2.10;99.90;;;;;;10380796;28;20555;-78
2024/01/21 20:44:30;;;;;;;29.60;11.60;;;2.00;99.90;;;;;;10379532;28;20237;-80
2024/01/21 20:49:51;;;;;;;30.07;14.40;;;2.00;90.90;;;;;;10355665;28;20282;-77
2024/01/21 20:55:12;;;;;;;29.07;11.13;;;2.00;99.90;;;;;;10360535;28;20209;-80
2024/01/21 21:00:35;;;;;;;25.03;12.67;;;2.10;68.40;;;;;;10296297;28;20242;-77
2024/01/21 21:05:56;;;;;;;23.90;11.27;;;2.00;99.90;;;;;;10500176;28;20275;-81
2024/01/21 21:11:18;;;;;;;26.37;10.93;;;2.00;99.90;;;;;;10504563;28;20205;-80
2024/01/21 21:16:40;;;;;;;25.07;10.97;;;2.00;10.30;;;;;;10377192;28;20540;-80
2024/01/21 21:22:01;;;;;;;24.33;10.03;;;2.00;56.20;;;;;;10268074;28;20249;-81
2024/01/21 21:27:22;;;;;;;23.77;10.50;;;2.00;44.80;;;;;;10368766;28;20206;-84
2024/01/21 21:32:44;;;;;;;22.10;9.93;;;1.90;22.80;;;;;;10281252;28;20205;-81
2024/01/21 21:38:05;;;;;;;25.33;11.13;;;1.90;23.40;;;;;;10281880;28;20260;-82
2024/01/21 21:43:27;;;;;;;23.27;9.93;;;1.90;1.00;;;;;;10384107;28;20358;-83
2024/01/21 21:48:48;;;;;;;42.43;15.13;;;1.90;51.90;;;;;;10363673;28;20213;-80
2024/01/21 21:54:10;;;;;;;22.27;10.40;;;1.90;17.30;;;;;;10409253;28;20247;-83
2024/01/21 21:59:32;;;;;;;25.73;10.63;;;2.00;1.00;;;;;;10408738;28;20253;-79
2024/01/21 22:04:53;;;;;;;25.57;9.73;;;1.90;8.00;;;;;;10452432;28;20389;-82
2024/01/21 22:10:14;;;;;;;21.70;8.73;;;1.90;1.00;;;;;;10517403;28;20206;-79
2024/01/21 22:15:36;;;;;;;23.97;10.13;;;1.90;1.00;;;;;;10449639;28;20205;-80
2024/01/21 22:20:59;;;;;;;26.77;11.37;;;2.00;1.00;;;;;;10355904;28;20564;-79
2024/01/21 22:26:22;;;;;;;26.60;10.10;;;2.00;1.00;;;;;;10286379;28;20201;-79
2024/01/21 22:31:46;;;;;;;23.43;10.23;;;2.00;1.00;;;;;;10347223;28;20506;-82
2024/01/21 22:37:07;;;;;;;19.87;9.47;;;2.00;1.00;;;;;;10273309;29;20573;-80
2024/01/21 22:42:29;;;;;;;23.90;9.90;;;2.00;1.00;;;;;;10367627;28;20229;-79
2024/01/21 22:47:50;;;;;;;26.50;11.93;;;2.00;1.00;;;;;;10370948;28;20210;-82
2024/01/21 22:53:13;;;;;;;26.83;10.07;;;2.00;1.00;;;;;;10272969;29;20192;-83
2024/01/21 22:58:35;;;;;;;20.67;10.10;;;2.10;1.00;;;;;;10297814;28;20231;-80
2024/01/21 23:03:57;;;;;;;19.80;8.10;;;2.00;1.00;;;;;;10335082;28;20460;-82
2024/01/21 23:09:18;;;;;;;16.97;8.23;;;2.00;1.00;;;;;;10522889;28;20221;-79
2024/01/21 23:14:39;;;;;;;16.13;9.57;;;2.00;1.00;;;;;;10460953;28;20504;-79
2024/01/21 23:20:03;;;;;;;18.60;9.40;;;2.00;1.00;;;;;;10382864;28;20512;-80
2024/01/21 23:25:24;;;;;;;19.63;9.40;;;2.00;1.00;;;;;;10298596;28;20198;-80
2024/01/21 23:30:46;;;;;;;19.27;9.13;;;2.00;1.00;;;;;;10303992;28;20203;-81
2024/01/21 23:36:07;;;;;;;17.73;9.17;;;1.90;1.00;;;;;;10358524;28;20206;-83
2024/01/21 23:41:28;;;;;;;20.20;9.47;;;1.90;1.00;;;;;;10358241;28;20227;-81
2024/01/21 23:46:50;;;;;;;16.67;8.60;;;2.00;1.00;;;;;;10364078;28;20214;-83
2024/01/21 23:52:12;;;;;;;18.37;8.93;;;2.10;1.00;;;;;;10357640;28;20207;-83
2024/01/21 23:57:33;;;;;;;17.70;8.53;;;2.00;1.00;;;;;;10371213;28;20282;-80
